Time;durP1;ratioP1;P1;durP2;ratioP2;P2;SDS_P1;SDS_P2;PMS_P1;PMS_P2;Temp;Humidity;BMP_temperature;BMP_pressure;BME280_temperature;BME280_humidity;BME280_pressure;Samples;Min_cycle;Max_cycle;Signal;HPM_P1;HPM_P2
2022/10/29 00:01:47;;;;;;;40.08;9.13;;;12.90;99.90;;;;;;5073315;28;20036;-77
2022/10/29 00:04:13;;;;;;;39.13;8.85;;;12.90;99.90;;;;;;5073863;28;20051;-80
2022/10/29 00:06:39;;;;;;;41.90;8.73;;;12.90;99.90;;;;;;5066282;28;20032;-79
2022/10/29 00:09:25;;;;;;;43.35;9.25;;;12.90;99.90;;;;;;5073317;28;20027;-81
2022/10/29 00:11:50;;;;;;;40.63;8.45;;;12.90;99.90;;;;;;5074121;28;20035;-80
2022/10/29 00:14:16;;;;;;;33.10;8.05;;;12.80;99.90;;;;;;5049382;28;20154;-80
2022/10/29 00:16:41;;;;;;;34.67;7.65;;;12.90;99.90;;;;;;5078350;28;20115;-78
2022/10/29 00:19:08;;;;;;;41.45;8.57;;;12.70;99.90;;;;;;5073561;28;20653;-79
2022/10/29 00:21:34;;;;;;;49.38;9.93;;;12.70;99.90;;;;;;5081439;28;20036;-79
2022/10/29 00:24:00;;;;;;;36.17;8.77;;;12.70;99.90;;;;;;5061443;28;20032;-79
2022/10/29 00:26:28;;;;;;;46.03;8.93;;;12.60;99.90;;;;;;5055419;28;20085;-80
2022/10/29 00:28:55;;;;;;;51.75;7.40;;;12.60;99.90;;;;;;5067382;28;20617;-81
2022/10/29 00:31:23;;;;;;;58.70;7.13;;;12.60;99.90;;;;;;5060272;28;20036;-79
2022/10/29 00:33:49;;;;;;;86.30;7.07;;;12.60;99.90;;;;;;5076780;28;20059;-78
2022/10/29 00:36:17;;;;;;;35.63;7.18;;;12.70;99.90;;;;;;5066247;28;20073;-80
2022/10/29 00:38:44;;;;;;;25.02;6.72;;;12.60;99.90;;;;;;5051351;28;20059;-80
2022/10/29 00:41:15;;;;;;;29.02;6.70;;;12.50;99.90;;;;;;5054285;28;20039;-79
2022/10/29 00:44:03;;;;;;;48.33;8.18;;;12.40;99.90;;;;;;5072053;28;20043;-78
2022/10/29 00:46:33;;;;;;;32.88;6.30;;;12.40;99.90;;;;;;4991478;28;20401;-81
2022/10/29 00:49:00;;;;;;;20.65;6.63;;;12.40;99.90;;;;;;4997766;28;20057;-80
2022/10/29 00:51:27;;;;;;;28.42;6.97;;;12.30;99.90;;;;;;5001267;28;20050;-78
2022/10/29 00:53:56;;;;;;;63.88;7.85;;;12.40;99.90;;;;;;4996501;28;20037;-78
2022/10/29 00:56:24;;;;;;;49.55;7.82;;;12.40;99.90;;;;;;5013376;28;20045;-79
2022/10/29 00:58:51;;;;;;;62.83;8.68;;;12.40;99.90;;;;;;4989442;28;20195;-81
2022/10/29 01:01:16;;;;;;;54.42;7.72;;;12.40;99.90;;;;;;5035326;28;20033;-81
2022/10/29 01:03:42;;;;;;;133.75;10.13;;;12.40;99.90;;;;;;5015391;28;20053;-79
2022/10/29 01:06:08;;;;;;;112.38;8.52;;;12.40;99.90;;;;;;4982909;28;20034;-77
2022/10/29 01:08:34;;;;;;;25.45;7.65;;;12.30;99.90;;;;;;5005959;28;20412;-79
2022/10/29 01:11:36;;;;;;;57.53;7.85;;;12.30;99.90;;;;;;4997992;28;20057;-80
2022/10/29 01:14:22;;;;;;;85.13;7.28;;;12.40;99.90;;;;;;4985828;28;20038;-77
2022/10/29 01:16:57;;;;;;;60.78;7.70;;;12.30;99.90;;;;;;5027553;28;20050;-78
2022/10/29 01:19:48;;;;;;;64.00;8.13;;;12.30;99.90;;;;;;5013128;28;20049;-80
2022/10/29 01:22:28;;;;;;;52.40;8.32;;;12.40;99.90;;;;;;4988766;28;20058;-80
2022/10/29 01:25:23;;;;;;;39.95;8.05;;;12.30;99.90;;;;;;5096931;28;20051;-82
2022/10/29 01:27:58;;;;;;;53.78;9.00;;;12.40;99.90;;;;;;5064779;28;22251;-75
2022/10/29 01:30:58;;;;;;;74.55;8.70;;;12.40;99.90;;;;;;5073230;28;20575;-79
2022/10/29 01:33:48;;;;;;;134.18;11.40;;;12.40;99.90;;;;;;5062456;28;20059;-80
2022/10/29 01:36:27;;;;;;;33.25;8.73;;;12.40;99.90;;;;;;5074155;28;20155;-78
2022/10/29 01:39:16;;;;;;;119.22;10.63;;;12.50;99.90;;;;;;5101395;27;20039;-80
2022/10/29 01:41:49;;;;;;;69.82;10.65;;;12.50;99.90;;;;;;5089219;28;20127;-80
2022/10/29 01:44:18;;;;;;;46.13;9.88;;;12.50;99.90;;;;;;5073479;28;20135;-81
2022/10/29 01:46:53;;;;;;;63.60;10.43;;;12.50;99.90;;;;;;5082383;28;20127;-79
2022/10/29 01:49:22;;;;;;;;;;;12.40;99.90;;;;;;5078225;28;20036;-79
2022/10/29 01:51:50;;;;;;;143.93;12.23;;;12.50;99.90;;;;;;5091895;28;19950;-80
2022/10/29 01:54:15;;;;;;;202.20;14.00;;;12.50;99.90;;;;;;5080634;28;20059;-79
2022/10/29 01:56:41;;;;;;;95.15;11.90;;;12.50;99.90;;;;;;5068260;28;20503;-80
2022/10/29 01:59:12;;;;;;;211.50;12.95;;;12.40;99.90;;;;;;5076095;28;20051;-78
2022/10/29 02:02:06;;;;;;;312.63;16.58;;;12.50;99.90;;;;;;5061001;28;20155;-78
2022/10/29 02:04:41;;;;;;;126.32;12.40;;;12.60;99.90;;;;;;4972061;28;20197;-81
2022/10/29 02:07:15;;;;;;;76.25;9.65;;;12.50;99.90;;;;;;4990133;28;20060;-79
2022/10/29 02:10:26;;;;;;;193.43;13.07;;;12.50;99.90;;;;;;5022164;28;20459;-78
2022/10/29 02:12:53;;;;;;;198.25;13.82;;;12.40;99.90;;;;;;5004081;28;20056;-81
2022/10/29 02:15:25;;;;;;;128.80;10.95;;;12.50;99.90;;;;;;5019013;28;20073;-78
2022/10/29 02:17:51;;;;;;;119.18;11.18;;;12.40;99.90;;;;;;5016149;28;20042;-81
2022/10/29 02:20:17;;;;;;;72.72;10.75;;;12.50;99.90;;;;;;5018188;28;20034;-78
2022/10/29 02:22:43;;;;;;;86.20;10.13;;;12.60;99.90;;;;;;4983185;28;20050;-79
2022/10/29 02:25:10;;;;;;;125.00;10.75;;;12.50;99.90;;;;;;5003148;28;20100;-79
2022/10/29 02:27:36;;;;;;;83.25;11.68;;;12.50;99.90;;;;;;5003498;28;20104;-80
2022/10/29 02:30:01;;;;;;;86.72;10.77;;;12.50;99.90;;;;;;5010336;28;20057;-80
2022/10/29 02:32:27;;;;;;;56.05;9.00;;;12.50;99.90;;;;;;5024451;28;20149;-78
2022/10/29 02:34:53;;;;;;;115.10;10.65;;;12.50;99.90;;;;;;5010640;28;20074;-77
2022/10/29 02:37:18;;;;;;;94.03;10.07;;;12.40;99.90;;;;;;5027725;28;20050;-79
2022/10/29 02:39:44;;;;;;;97.72;10.30;;;12.50;99.90;;;;;;5007545;28;20136;-81
2022/10/29 02:42:10;;;;;;;123.82;9.88;;;12.40;99.90;;;;;;5069679;28;20055;-80
2022/10/29 02:44:35;;;;;;;81.40;9.40;;;12.50;99.90;;;;;;5059893;28;20044;-79
2022/10/29 02:47:01;;;;;;;58.97;9.85;;;12.60;99.90;;;;;;5078949;28;20071;-78
2022/10/29 02:49:27;;;;;;;46.72;9.45;;;12.60;99.90;;;;;;5066317;28;20044;-79
2022/10/29 02:51:52;;;;;;;126.40;11.07;;;12.50;99.90;;;;;;5059473;28;20531;-80
2022/10/29 02:54:18;;;;;;;61.25;8.15;;;12.50;99.90;;;;;;5079404;28;20451;-79
2022/10/29 02:56:43;;;;;;;98.72;9.18;;;12.50;99.90;;;;;;5075169;28;20040;-77
2022/10/29 02:59:09;;;;;;;142.82;10.70;;;12.60;99.90;;;;;;5060901;28;20044;-80
2022/10/29 03:01:35;;;;;;;67.15;9.32;;;12.60;99.90;;;;;;5066594;28;20035;-80
2022/10/29 03:04:00;;;;;;;63.42;7.78;;;12.50;99.90;;;;;;5064781;28;20067;-78
2022/10/29 03:06:26;;;;;;;124.05;10.60;;;12.60;99.90;;;;;;5076977;28;20395;-79
2022/10/29 03:08:52;;;;;;;78.82;7.60;;;12.50;99.90;;;;;;5062136;28;20052;-80
2022/10/29 03:11:17;;;;;;;67.15;8.48;;;12.50;99.90;;;;;;5056719;28;20043;-81
2022/10/29 03:13:43;;;;;;;58.10;8.38;;;12.60;99.90;;;;;;5052500;28;20044;-80
2022/10/29 03:16:09;;;;;;;79.82;8.30;;;12.50;99.90;;;;;;5081418;28;20076;-80
2022/10/29 03:18:34;;;;;;;39.53;8.15;;;12.50;99.90;;;;;;5055370;28;20055;-81
2022/10/29 03:21:00;;;;;;;78.15;9.88;;;12.40;99.90;;;;;;5073695;28;20111;-80
2022/10/29 03:23:26;;;;;;;87.15;9.93;;;12.40;99.90;;;;;;5063148;28;20058;-80
2022/10/29 03:25:53;;;;;;;58.33;8.13;;;12.50;99.90;;;;;;5059372;28;20047;-78
2022/10/29 03:28:24;;;;;;;113.10;8.88;;;12.50;99.90;;;;;;5058766;28;20090;-78
2022/10/29 03:30:50;;;;;;;106.10;8.95;;;12.40;99.90;;;;;;5045161;28;20093;-78
2022/10/29 03:33:15;;;;;;;113.70;9.02;;;12.30;99.90;;;;;;5069417;28;20422;-82
2022/10/29 03:35:41;;;;;;;102.25;10.48;;;12.30;99.90;;;;;;5055391;28;20048;-78
2022/10/29 03:38:07;;;;;;;142.75;10.50;;;12.40;99.90;;;;;;5072302;28;20049;-81
2022/10/29 03:40:33;;;;;;;73.22;8.10;;;12.30;99.90;;;;;;5054302;28;20438;-82
2022/10/29 03:42:58;;;;;;;82.30;8.10;;;12.30;99.90;;;;;;5037266;28;20040;-78
2022/10/29 03:45:24;;;;;;;123.18;9.90;;;12.30;99.90;;;;;;5057490;28;20529;-80
2022/10/29 03:47:50;;;;;;;62.50;7.38;;;12.20;99.90;;;;;;5064738;28;20048;-80
2022/10/29 03:50:15;;;;;;;79.97;8.20;;;12.20;99.90;;;;;;5073804;28;20051;-79
2022/10/29 03:52:41;;;;;;;80.05;8.25;;;12.20;99.90;;;;;;5067082;28;20785;-79
2022/10/29 03:55:07;;;;;;;124.50;8.98;;;12.30;99.90;;;;;;5073236;28;20100;-80
2022/10/29 03:57:33;;;;;;;113.78;9.07;;;12.30;99.90;;;;;;5072824;28;20140;-78
2022/10/29 03:59:59;;;;;;;66.55;7.72;;;12.30;99.90;;;;;;5080673;28;20212;-77
2022/10/29 04:02:25;;;;;;;109.05;8.27;;;12.20;99.90;;;;;;5085440;28;20120;-80
2022/10/29 04:04:51;;;;;;;86.68;8.15;;;12.20;99.90;;;;;;5075952;28;20051;-79
2022/10/29 04:07:17;;;;;;;60.63;7.32;;;12.30;99.90;;;;;;5062859;28;20044;-79
2022/10/29 04:09:44;;;;;;;93.65;7.90;;;12.20;99.90;;;;;;5071583;28;20043;-76
2022/10/29 04:12:09;;;;;;;50.42;6.97;;;12.30;99.90;;;;;;5080513;28;20374;-77
2022/10/29 04:14:35;;;;;;;96.78;9.35;;;12.30;99.90;;;;;;5040581;28;20352;-80
2022/10/29 04:17:00;;;;;;;74.90;8.20;;;12.30;99.90;;;;;;5072604;28;20039;-78
2022/10/29 04:19:29;;;;;;;45.70;8.32;;;12.30;99.90;;;;;;5063672;28;20505;-78
2022/10/29 04:21:55;;;;;;;80.25;8.20;;;12.30;99.90;;;;;;5075291;28;20045;-79
2022/10/29 04:24:20;;;;;;;55.15;8.10;;;12.30;99.90;;;;;;5073437;28;20133;-80
2022/10/29 04:26:46;;;;;;;86.55;8.80;;;12.30;99.90;;;;;;5076694;28;20392;-80
2022/10/29 04:29:11;;;;;;;143.77;9.98;;;12.40;99.90;;;;;;5054956;28;20063;-79
2022/10/29 04:31:37;;;;;;;50.42;8.52;;;12.40;99.90;;;;;;5082390;28;20130;-79
2022/10/29 04:34:03;;;;;;;121.40;10.93;;;12.30;99.90;;;;;;5075334;28;20063;-78
2022/10/29 04:36:31;;;;;;;108.30;9.73;;;12.40;99.90;;;;;;5057633;28;20335;-77
2022/10/29 04:38:56;;;;;;;79.13;9.75;;;12.40;99.90;;;;;;5073654;28;20076;-80
2022/10/29 04:41:22;;;;;;;81.47;9.20;;;12.30;99.90;;;;;;5057681;28;20036;-78
2022/10/29 04:43:48;;;;;;;63.20;8.85;;;12.30;99.90;;;;;;5038075;28;20033;-77
2022/10/29 04:46:13;;;;;;;99.30;12.05;;;12.30;99.90;;;;;;5041906;28;20368;-81
2022/10/29 04:48:39;;;;;;;53.13;9.70;;;12.30;99.90;;;;;;5028601;28;20497;-82
2022/10/29 04:51:05;;;;;;;89.78;11.73;;;12.40;99.90;;;;;;5052561;28;20058;-77
2022/10/29 04:53:30;;;;;;;82.32;10.63;;;12.40;99.90;;;;;;5041430;28;20041;-78
2022/10/29 04:56:01;;;;;;;82.72;10.25;;;12.30;99.90;;;;;;5034106;28;20048;-77
2022/10/29 04:58:27;;;;;;;65.97;9.75;;;12.50;99.90;;;;;;5038577;28;20789;-76
2022/10/29 05:00:52;;;;;;;61.97;9.77;;;12.40;99.90;;;;;;5071418;28;20029;-79
2022/10/29 05:03:18;;;;;;;58.63;10.85;;;12.50;99.90;;;;;;5072721;28;20472;-78
2022/10/29 05:05:44;;;;;;;95.18;10.55;;;12.50;99.90;;;;;;5045678;28;20119;-81
2022/10/29 05:08:10;;;;;;;109.57;11.63;;;12.60;99.90;;;;;;5025766;28;20052;-81
2022/10/29 05:10:38;;;;;;;121.28;11.23;;;12.40;99.90;;;;;;5041532;28;20040;-79
2022/10/29 05:13:07;;;;;;;116.63;11.65;;;12.40;99.90;;;;;;5041104;28;20574;-77
2022/10/29 05:15:33;;;;;;;89.32;11.10;;;12.40;99.90;;;;;;5037920;28;20052;-78
2022/10/29 05:17:59;;;;;;;101.00;11.25;;;12.50;99.90;;;;;;5046443;28;20036;-79
2022/10/29 05:20:26;;;;;;;64.60;10.57;;;12.50;99.90;;;;;;5068236;28;20047;-80
2022/10/29 05:23:06;;;;;;;108.85;11.75;;;12.50;99.90;;;;;;5057566;28;20526;-78
2022/10/29 05:25:33;;;;;;;60.78;11.13;;;12.50;99.90;;;;;;5042044;28;20142;-77
2022/10/29 05:28:05;;;;;;;47.45;10.23;;;12.60;99.90;;;;;;5055529;28;20832;-79
2022/10/29 05:30:32;;;;;;;57.22;10.63;;;12.60;99.90;;;;;;5056842;28;20037;-78
2022/10/29 05:32:58;;;;;;;84.15;10.77;;;12.50;99.90;;;;;;5023005;28;20563;-79
2022/10/29 05:35:24;;;;;;;86.82;10.75;;;12.40;99.90;;;;;;5026397;28;20160;-79
2022/10/29 05:37:54;;;;;;;56.63;11.18;;;12.50;99.90;;;;;;5029870;28;20131;-78
2022/10/29 05:40:20;;;;;;;59.15;11.48;;;12.60;99.90;;;;;;5072632;28;20153;-79
2022/10/29 05:42:47;;;;;;;40.78;10.10;;;12.50;99.90;;;;;;5051616;28;20393;-80
2022/10/29 05:45:13;;;;;;;83.45;11.85;;;12.70;99.90;;;;;;5042560;28;20045;-78
2022/10/29 05:47:39;;;;;;;88.07;12.93;;;12.50;99.90;;;;;;5031250;28;20049;-78
2022/10/29 05:50:05;;;;;;;55.35;11.20;;;12.50;99.90;;;;;;5072445;28;20055;-77
2022/10/29 05:52:31;;;;;;;47.95;10.57;;;12.60;99.90;;;;;;5041130;28;20087;-78
2022/10/29 05:54:57;;;;;;;48.63;11.25;;;12.50;99.90;;;;;;5041169;28;20036;-78
2022/10/29 05:57:22;;;;;;;63.55;11.35;;;12.60;99.90;;;;;;5075871;28;20045;-81
2022/10/29 05:59:48;;;;;;;56.05;11.68;;;12.60;99.90;;;;;;5049674;28;20457;-80
2022/10/29 06:02:13;;;;;;;45.28;11.15;;;12.50;99.90;;;;;;5043002;28;20428;-78
2022/10/29 06:04:39;;;;;;;30.23;9.48;;;12.50;99.90;;;;;;5061331;28;20044;-83
2022/10/29 06:07:05;;;;;;;30.80;10.25;;;12.50;99.90;;;;;;5073130;28;20048;-79
2022/10/29 06:09:30;;;;;;;44.42;10.60;;;12.60;99.90;;;;;;5053128;28;20063;-78
2022/10/29 06:11:56;;;;;;;48.60;10.85;;;12.50;99.90;;;;;;5040676;28;20052;-78
2022/10/29 06:14:22;;;;;;;38.45;9.68;;;12.50;99.90;;;;;;5042339;28;20101;-82
2022/10/29 06:16:48;;;;;;;58.38;10.70;;;12.50;99.90;;;;;;5074747;28;20036;-76
2022/10/29 06:19:13;;;;;;;69.38;10.27;;;12.50;99.90;;;;;;5027090;28;20036;-78
2022/10/29 06:21:39;;;;;;;84.25;9.35;;;12.50;99.90;;;;;;5046223;28;20036;-79
2022/10/29 06:24:05;;;;;;;69.00;9.98;;;12.50;99.90;;;;;;5021454;28;20068;-80
2022/10/29 06:26:32;;;;;;;62.63;9.85;;;12.60;99.90;;;;;;5026187;28;20044;-77
2022/10/29 06:28:58;;;;;;;87.93;11.00;;;12.60;99.90;;;;;;5037850;28;20063;-81
2022/10/29 06:31:24;;;;;;;106.65;10.55;;;12.60;99.90;;;;;;5030158;28;20108;-77
2022/10/29 06:33:50;;;;;;;62.17;9.68;;;12.60;99.90;;;;;;5035211;28;20198;-78
2022/10/29 06:36:15;;;;;;;39.10;9.85;;;12.50;99.90;;;;;;5068811;28;20104;-78
2022/10/29 06:38:41;;;;;;;70.88;10.10;;;12.60;99.90;;;;;;5074738;28;20037;-78
2022/10/29 06:41:08;;;;;;;80.60;10.27;;;12.50;99.90;;;;;;5018947;28;20049;-80
2022/10/29 06:43:34;;;;;;;78.22;11.05;;;12.50;99.90;;;;;;5046540;28;20083;-79
2022/10/29 06:46:00;;;;;;;113.22;11.65;;;12.60;99.90;;;;;;5054647;28;20051;-80
2022/10/29 06:48:25;;;;;;;73.30;10.85;;;12.60;99.90;;;;;;5035749;28;20048;-79
2022/10/29 06:50:52;;;;;;;82.85;10.38;;;12.70;99.90;;;;;;5036052;28;20037;-77
2022/10/29 06:53:18;;;;;;;102.13;11.15;;;12.70;99.90;;;;;;5067871;28;20048;-77
2022/10/29 06:55:44;;;;;;;106.25;11.80;;;12.60;99.90;;;;;;5054054;28;20040;-80
2022/10/29 06:58:14;;;;;;;64.95;10.57;;;12.70;99.90;;;;;;5071540;28;20450;-79
2022/10/29 07:00:41;;;;;;;48.03;10.43;;;12.70;99.90;;;;;;5036067;28;20039;-80
2022/10/29 07:03:10;;;;;;;85.40;10.95;;;12.70;99.90;;;;;;5018301;28;20032;-78
2022/10/29 07:05:36;;;;;;;43.20;10.00;;;12.70;99.90;;;;;;5039524;28;20452;-77
2022/10/29 07:08:02;;;;;;;60.95;11.35;;;12.80;99.90;;;;;;5036995;28;20055;-79
2022/10/29 07:10:30;;;;;;;80.22;11.25;;;12.90;99.90;;;;;;5038046;28;20068;-79
2022/10/29 07:12:55;;;;;;;57.35;11.45;;;13.00;99.90;;;;;;5044431;28;20048;-79
2022/10/29 07:15:21;;;;;;;72.85;10.73;;;13.00;99.90;;;;;;5075220;28;20037;-79
2022/10/29 07:18:03;;;;;;;65.43;10.27;;;13.00;99.90;;;;;;5022223;28;20032;-81
2022/10/29 07:20:31;;;;;;;48.10;11.10;;;13.00;99.90;;;;;;5070819;28;20039;-77
2022/10/29 07:22:57;;;;;;;77.50;12.05;;;13.20;99.90;;;;;;5025146;28;20037;-81
2022/10/29 07:25:23;;;;;;;84.50;11.02;;;13.10;99.90;;;;;;5025741;28;20128;-81
2022/10/29 07:27:49;;;;;;;71.20;12.40;;;13.20;99.90;;;;;;5039757;28;20059;-80
2022/10/29 07:30:15;;;;;;;64.40;10.65;;;13.20;99.90;;;;;;5040182;28;20044;-80
2022/10/29 07:32:41;;;;;;;78.55;12.10;;;13.20;99.90;;;;;;5051654;28;20404;-80
2022/10/29 07:35:07;;;;;;;68.40;10.88;;;13.10;99.90;;;;;;5020005;28;20049;-77
2022/10/29 07:37:33;;;;;;;85.65;11.40;;;13.20;99.90;;;;;;5020869;28;20493;-80
2022/10/29 07:39:59;;;;;;;81.18;11.98;;;13.20;99.90;;;;;;5036306;28;20049;-79
2022/10/29 07:42:24;;;;;;;76.93;12.00;;;13.20;99.90;;;;;;5060133;28;20219;-81
2022/10/29 07:44:50;;;;;;;66.75;12.02;;;13.20;99.90;;;;;;5021502;28;20044;-81
2022/10/29 07:47:15;;;;;;;70.20;13.25;;;13.40;99.90;;;;;;5055177;28;20488;-78
2022/10/29 07:49:42;;;;;;;66.22;13.23;;;13.30;99.90;;;;;;5033897;28;20040;-79
2022/10/29 07:52:10;;;;;;;95.25;15.10;;;13.30;99.90;;;;;;5027106;28;20048;-79
2022/10/29 07:54:35;;;;;;;106.43;15.40;;;13.50;99.90;;;;;;5032957;28;20041;-81
2022/10/29 07:57:01;;;;;;;72.60;13.80;;;13.50;99.90;;;;;;5037783;28;20048;-79
2022/10/29 07:59:27;;;;;;;78.35;14.70;;;13.60;99.90;;;;;;5019571;28;20073;-79
2022/10/29 08:01:53;;;;;;;67.32;15.13;;;13.60;99.90;;;;;;5019646;28;20542;-78
2022/10/29 08:04:18;;;;;;;64.47;13.93;;;13.60;99.90;;;;;;5054615;28;20087;-78
2022/10/29 08:06:44;;;;;;;90.30;16.45;;;13.70;99.90;;;;;;5067544;28;20064;-77
2022/10/29 08:09:11;;;;;;;93.07;15.90;;;13.80;99.90;;;;;;5071381;28;20156;-78
2022/10/29 08:11:37;;;;;;;93.07;17.08;;;13.80;99.90;;;;;;5049311;28;20045;-79
2022/10/29 08:14:03;;;;;;;86.32;17.08;;;13.80;99.90;;;;;;5056733;28;20062;-81
2022/10/29 08:16:29;;;;;;;76.45;17.50;;;13.70;99.90;;;;;;5058259;28;20476;-80
2022/10/29 08:18:54;;;;;;;78.68;18.73;;;13.80;99.90;;;;;;5062796;28;20044;-76
2022/10/29 08:21:20;;;;;;;93.22;19.33;;;13.80;99.90;;;;;;5058012;28;20441;-80
2022/10/29 08:23:46;;;;;;;76.68;19.40;;;13.80;99.90;;;;;;5021812;28;20071;-81
2022/10/29 08:26:11;;;;;;;73.72;20.38;;;13.80;99.90;;;;;;5078690;28;20075;-78
2022/10/29 08:28:37;;;;;;;87.03;21.67;;;13.80;99.90;;;;;;5077746;28;20070;-79
2022/10/29 08:31:03;;;;;;;96.00;23.88;;;13.80;99.90;;;;;;5058138;28;20052;-79
2022/10/29 08:33:32;;;;;;;83.22;22.77;;;13.90;99.90;;;;;;5068338;28;20079;-78
2022/10/29 08:35:57;;;;;;;82.70;23.90;;;13.90;99.90;;;;;;5037249;28;20198;-80
2022/10/29 08:38:23;;;;;;;80.93;25.17;;;14.00;99.90;;;;;;5035508;28;20134;-78
2022/10/29 08:41:17;;;;;;;81.90;26.73;;;14.10;99.90;;;;;;5067755;28;20036;-81
2022/10/29 08:44:01;;;;;;;109.43;27.88;;;14.20;99.90;;;;;;5033901;28;20481;-78
2022/10/29 08:46:46;;;;;;;90.05;27.48;;;14.10;99.90;;;;;;5057755;28;20479;-78
2022/10/29 08:49:23;;;;;;;99.03;28.88;;;14.30;99.90;;;;;;5052789;28;20055;-78
2022/10/29 08:51:58;;;;;;;90.75;28.88;;;14.20;99.90;;;;;;5026516;28;20052;-79
2022/10/29 08:54:25;;;;;;;;;;;14.40;99.90;;;;;;5035042;28;20132;-78
2022/10/29 08:56:56;;;;;;;85.00;27.85;;;14.30;99.90;;;;;;5055710;28;19926;-78
2022/10/29 08:59:23;;;;;;;93.90;30.17;;;14.40;99.90;;;;;;5061269;28;20121;-80
2022/10/29 09:01:51;;;;;;;86.15;30.30;;;14.40;99.90;;;;;;5052992;28;20041;-79
2022/10/29 09:04:34;;;;;;;86.60;30.38;;;14.50;99.90;;;;;;5075841;28;20052;-78
2022/10/29 09:07:08;;;;;;;80.43;30.42;;;14.40;99.90;;;;;;5067995;28;20474;-78
2022/10/29 09:09:44;;;;;;;91.95;30.88;;;14.30;99.90;;;;;;5069227;28;20045;-78
2022/10/29 09:12:32;;;;;;;80.93;31.00;;;14.30;99.90;;;;;;5039290;28;20059;-80
2022/10/29 09:15:29;;;;;;;81.53;31.08;;;14.30;99.90;;;;;;5037597;28;20056;-77
2022/10/29 09:18:19;;;;;;;83.70;31.27;;;14.40;99.90;;;;;;5044520;28;20620;-79
2022/10/29 09:20:50;;;;;;;87.55;32.58;;;14.40;99.90;;;;;;5052847;28;20143;-80
2022/10/29 09:23:29;;;;;;;78.90;31.88;;;14.30;99.90;;;;;;5072810;28;20075;-77
2022/10/29 09:26:02;;;;;;;83.50;32.20;;;14.50;99.90;;;;;;5071476;28;20056;-78
2022/10/29 09:28:59;;;;;;;69.82;31.83;;;14.60;99.90;;;;;;5056082;28;20132;-79
2022/10/29 09:31:40;;;;;;;77.53;30.60;;;14.50;99.90;;;;;;5072819;28;20463;-78
2022/10/29 09:34:17;;;;;;;79.40;31.50;;;14.50;99.90;;;;;;5059651;28;20059;-79
2022/10/29 09:36:45;;;;;;;83.72;31.42;;;14.70;99.90;;;;;;5036689;28;20079;-78
2022/10/29 09:39:15;;;;;;;67.63;29.75;;;14.70;99.90;;;;;;5078349;28;20560;-78
2022/10/29 09:41:43;;;;;;;79.72;30.63;;;14.80;99.90;;;;;;5027204;28;20101;-78
2022/10/29 09:44:22;;;;;;;76.45;30.45;;;14.70;99.90;;;;;;5037208;28;20124;-77
2022/10/29 09:47:28;;;;;;;80.38;31.08;;;14.90;99.90;;;;;;5045619;28;20036;-77
2022/10/29 09:50:12;;;;;;;65.95;28.90;;;14.80;99.90;;;;;;5037672;28;20052;-78
2022/10/29 09:52:43;;;;;;;75.72;28.35;;;14.70;99.90;;;;;;5073881;28;20045;-77
2022/10/29 09:55:40;;;;;;;65.82;27.58;;;14.90;99.90;;;;;;5089169;28;20515;-81
2022/10/29 09:58:08;;;;;;;60.40;25.67;;;14.80;99.90;;;;;;5036267;28;20052;-77
2022/10/29 10:00:34;;;;;;;63.45;26.83;;;14.80;99.90;;;;;;5034201;28;20047;-80
2022/10/29 10:03:11;;;;;;;66.90;25.85;;;14.90;99.90;;;;;;5050060;28;20033;-79
2022/10/29 10:05:58;;;;;;;57.70;24.83;;;14.90;99.90;;;;;;5025333;28;20136;-78
2022/10/29 10:08:24;;;;;;;63.40;24.90;;;14.90;99.90;;;;;;5060779;28;20059;-84
2022/10/29 10:10:54;;;;;;;64.60;24.90;;;15.10;99.90;;;;;;5029813;28;20049;-78
2022/10/29 10:13:28;;;;;;;58.20;23.70;;;15.20;99.90;;;;;;5043266;28;20048;-76
2022/10/29 10:15:59;;;;;;;57.33;23.50;;;15.20;99.90;;;;;;5044545;28;22430;-76
2022/10/29 10:18:31;;;;;;;57.40;24.40;;;15.30;99.90;;;;;;5034125;28;20048;-77
2022/10/29 10:21:33;;;;;;;57.97;22.00;;;15.30;99.90;;;;;;5058246;28;20044;-81
2022/10/29 10:23:59;;;;;;;51.95;22.70;;;15.20;99.90;;;;;;5022135;28;20048;-81
2022/10/29 10:26:30;;;;;;;56.40;22.48;;;15.20;99.90;;;;;;5049402;28;20106;-78
2022/10/29 10:29:23;;;;;;;43.15;19.50;;;15.60;99.90;;;;;;5037822;28;20061;-80
2022/10/29 10:31:55;;;;;;;50.22;21.08;;;15.50;99.90;;;;;;5028514;28;20060;-76
2022/10/29 10:34:24;;;;;;;48.95;20.23;;;15.80;99.90;;;;;;5046144;28;20049;-78
2022/10/29 10:37:09;;;;;;;48.90;20.88;;;15.80;99.90;;;;;;5046635;28;20084;-79
2022/10/29 10:39:59;;;;;;;43.00;18.25;;;15.80;99.90;;;;;;5026026;28;20045;-80
2022/10/29 10:42:35;;;;;;;40.95;17.65;;;15.90;99.90;;;;;;4992008;28;20126;-78
2022/10/29 10:45:14;;;;;;;42.55;17.92;;;16.00;99.90;;;;;;4975605;28;20048;-77
2022/10/29 10:47:44;;;;;;;41.33;17.67;;;16.00;99.90;;;;;;4994018;28;20077;-80
2022/10/29 10:50:21;;;;;;;37.97;16.67;;;16.00;99.90;;;;;;5009091;28;20469;-79
2022/10/29 10:52:50;;;;;;;38.42;17.45;;;16.30;99.90;;;;;;4965549;28;20046;-77
2022/10/29 10:55:36;;;;;;;32.15;15.68;;;16.40;99.90;;;;;;4997983;28;20494;-79
2022/10/29 10:58:12;;;;;;;40.60;16.42;;;16.40;99.90;;;;;;4981283;28;20046;-80
2022/10/29 11:00:52;;;;;;;35.88;16.00;;;16.50;99.90;;;;;;5006507;28;20122;-81
2022/10/29 11:03:26;;;;;;;32.35;15.05;;;16.60;99.90;;;;;;4988711;28;20104;-79
2022/10/29 11:06:06;;;;;;;40.03;15.70;;;16.50;99.90;;;;;;4983855;28;20505;-80
2022/10/29 11:08:48;;;;;;;35.22;15.00;;;16.60;99.90;;;;;;4997938;28;20104;-75
2022/10/29 11:11:33;;;;;;;35.42;16.60;;;16.80;99.90;;;;;;4974706;28;20085;-82
2022/10/29 11:14:09;;;;;;;33.63;15.38;;;16.80;99.90;;;;;;4988742;28;20122;-78
2022/10/29 11:16:47;;;;;;;33.90;15.52;;;16.90;99.90;;;;;;4986511;28;20162;-80
2022/10/29 11:19:17;;;;;;;34.28;14.30;;;17.00;99.90;;;;;;4997126;28;20048;-79
2022/10/29 11:22:01;;;;;;;37.97;14.38;;;16.90;99.90;;;;;;5032394;28;20397;-78
2022/10/29 11:24:51;;;;;;;29.40;13.23;;;16.80;99.90;;;;;;5032146;28;20068;-78
2022/10/29 11:27:46;;;;;;;32.25;13.13;;;16.90;99.90;;;;;;5021250;28;20057;-79
2022/10/29 11:30:15;;;;;;;34.67;12.33;;;17.10;99.90;;;;;;5042097;28;20063;-78
2022/10/29 11:32:57;;;;;;;40.97;12.57;;;17.00;99.90;;;;;;5035510;28;20052;-80
2022/10/29 11:35:48;;;;;;;26.55;11.68;;;17.10;99.90;;;;;;5018254;28;20053;-82
2022/10/29 11:38:46;;;;;;;32.83;11.82;;;17.40;99.90;;;;;;5049236;28;20037;-77
2022/10/29 11:41:37;;;;;;;29.05;11.35;;;17.40;99.90;;;;;;5029738;28;20053;-81
2022/10/29 11:44:03;;;;;;;28.27;11.38;;;17.40;99.90;;;;;;5018613;28;20064;-80
2022/10/29 11:46:47;;;;;;;25.80;10.98;;;17.40;99.90;;;;;;5021383;28;20365;-79
2022/10/29 11:49:40;;;;;;;27.13;11.23;;;17.50;99.90;;;;;;5048586;28;20045;-82
2022/10/29 11:52:27;;;;;;;28.90;10.85;;;17.60;99.90;;;;;;5025476;28;20048;-80
2022/10/29 11:55:11;;;;;;;30.38;10.55;;;17.70;99.90;;;;;;5015839;28;20049;-81
2022/10/29 11:57:54;;;;;;;30.00;11.57;;;17.70;99.90;;;;;;5048648;28;20090;-81
2022/10/29 12:00:24;;;;;;;27.58;10.65;;;18.00;99.90;;;;;;5008163;28;20042;-80
2022/10/29 12:03:08;;;;;;;23.90;10.32;;;18.00;99.90;;;;;;5042406;28;20045;-78
2022/10/29 12:05:40;;;;;;;37.65;11.18;;;18.10;99.90;;;;;;5032214;28;20120;-79
2022/10/29 12:08:50;;;;;;;24.63;9.70;;;17.90;99.90;;;;;;5015085;28;20041;-79
2022/10/29 12:11:35;;;;;;;35.65;10.25;;;17.90;99.90;;;;;;5011825;28;20053;-79
2022/10/29 12:14:19;;;;;;;;;;;18.00;99.90;;;;;;5024070;28;20347;-82
2022/10/29 12:17:17;;;;;;;23.67;9.70;;;18.00;99.90;;;;;;5023443;28;19933;-77
2022/10/29 12:20:12;;;;;;;27.42;10.52;;;17.80;99.90;;;;;;5008101;28;20037;-78
2022/10/29 12:22:46;;;;;;;27.52;10.77;;;18.00;99.90;;;;;;5041859;28;20033;-76
2022/10/29 12:25:27;;;;;;;26.70;10.15;;;17.90;99.90;;;;;;5065766;28;20042;-77
2022/10/29 12:28:04;;;;;;;28.58;10.23;;;18.30;99.90;;;;;;5044408;28;20064;-79
2022/10/29 12:30:59;;;;;;;25.08;9.85;;;18.40;99.90;;;;;;5014030;28;20042;-81
2022/10/29 12:33:44;;;;;;;27.17;8.95;;;18.40;99.90;;;;;;5005366;28;20104;-81
2022/10/29 12:36:14;;;;;;;26.80;9.10;;;18.30;99.90;;;;;;5047339;28;20141;-77
2022/10/29 12:38:43;;;;;;;26.90;9.25;;;18.20;99.90;;;;;;5017134;28;20038;-81
2022/10/29 12:41:29;;;;;;;29.98;9.27;;;18.20;99.90;;;;;;5026350;28;20053;-78
2022/10/29 12:44:06;;;;;;;22.65;8.52;;;18.40;99.90;;;;;;5023883;28;20098;-80
2022/10/29 12:46:50;;;;;;;25.23;8.73;;;18.40;99.90;;;;;;5024753;28;20434;-80
2022/10/29 12:49:39;;;;;;;25.50;9.13;;;18.40;99.90;;;;;;5007175;28;20049;-80
2022/10/29 12:52:20;;;;;;;23.05;8.80;;;18.70;99.90;;;;;;5011487;28;20042;-78
2022/10/29 12:54:49;;;;;;;27.10;8.98;;;18.70;99.90;;;;;;4996145;28;20046;-77